createdAt,value
2018-10-18T00:00:57.767Z,1016.75
2018-10-18T00:01:57.796Z,1016.79
2018-10-18T00:02:57.819Z,1016.76
2018-10-18T00:03:57.849Z,1016.74
2018-10-18T00:04:57.872Z,1016.72
2018-10-18T00:05:57.910Z,1016.75
2018-10-18T00:06:57.915Z,1016.75
2018-10-18T00:07:57.962Z,1016.73
2018-10-18T00:08:57.965Z,1016.72
2018-10-18T00:09:57.998Z,1016.75
2018-10-18T00:10:58.013Z,1016.74
2018-10-18T00:11:58.051Z,1016.70
2018-10-18T00:12:58.067Z,1016.74
2018-10-18T00:13:58.130Z,1016.74
2018-10-18T00:14:58.116Z,1016.71
2018-10-18T00:15:58.144Z,1016.74
2018-10-18T00:16:58.164Z,1016.71
2018-10-18T00:17:58.250Z,1016.68
2018-10-18T00:18:58.222Z,1016.70
2018-10-18T00:19:58.248Z,1016.65
2018-10-18T00:20:58.262Z,1016.65
2018-10-18T00:21:58.290Z,1016.67
2018-10-18T00:22:58.324Z,1016.63
2018-10-18T00:23:58.359Z,1016.65
2018-10-18T00:24:58.371Z,1016.64
2018-10-18T00:25:58.409Z,1016.60
2018-10-18T00:26:58.410Z,1016.64
2018-10-18T00:27:58.438Z,1016.64
2018-10-18T00:28:58.462Z,1016.64
2018-10-18T00:29:58.538Z,1016.64
2018-10-18T00:30:58.512Z,1016.66
2018-10-18T00:31:58.570Z,1016.68
2018-10-18T00:32:58.568Z,1016.66
2018-10-18T00:33:58.591Z,1016.64
2018-10-18T00:34:58.619Z,1016.62
2018-10-18T00:35:58.653Z,1016.64
2018-10-18T00:36:58.663Z,1016.65
2018-10-18T00:37:58.738Z,1016.66
2018-10-18T00:38:58.721Z,1016.66
2018-10-18T00:39:58.740Z,1016.70
2018-10-18T00:40:58.770Z,1016.67
2018-10-18T00:41:58.860Z,1016.71
2018-10-18T00:42:58.821Z,1016.69
2018-10-18T00:43:58.858Z,1016.71
2018-10-18T00:44:58.866Z,1016.70
2018-10-18T00:45:58.885Z,1016.72
2018-10-18T00:46:58.914Z,1016.69
2018-10-18T00:47:58.966Z,1016.73
2018-10-18T00:48:58.962Z,1016.72
2018-10-18T00:49:59.032Z,1016.75
2018-10-18T00:50:59.020Z,1016.76
2018-10-18T00:51:59.032Z,1016.73
2018-10-18T00:52:59.060Z,1016.70
2018-10-18T00:53:59.114Z,1016.69
2018-10-18T00:54:59.112Z,1016.66
2018-10-18T00:55:59.144Z,1016.70
2018-10-18T00:56:59.166Z,1016.68
2018-10-18T00:57:59.182Z,1016.69
2018-10-18T00:58:59.209Z,1016.68
2018-10-18T00:59:59.278Z,1016.68
2018-10-18T01:00:59.264Z,1016.69
2018-10-18T01:01:59.345Z,1016.69
2018-10-18T01:02:59.308Z,1016.68
2018-10-18T01:03:59.342Z,1016.68
2018-10-18T01:04:59.358Z,1016.70
2018-10-18T01:05:59.431Z,1016.72
2018-10-18T01:06:59.404Z,1016.74
2018-10-18T01:07:59.488Z,1016.75
2018-10-18T01:08:59.455Z,1016.74
2018-10-18T01:09:59.483Z,1016.70
2018-10-18T01:10:59.518Z,1016.71
2018-10-18T01:11:59.551Z,1016.76
2018-10-18T01:12:59.556Z,1016.74
2018-10-18T01:13:59.605Z,1016.73
2018-10-18T01:14:59.604Z,1016.71
2018-10-18T01:15:59.633Z,1016.68
2018-10-18T01:16:59.659Z,1016.69
2018-10-18T01:17:59.692Z,1016.68
2018-10-18T01:18:59.708Z,1016.66
2018-10-18T01:19:59.742Z,1016.65
2018-10-18T01:20:59.753Z,1016.67
2018-10-18T01:21:59.782Z,1016.65
2018-10-18T01:22:59.806Z,1016.64
2018-10-18T01:23:59.871Z,1016.64
2018-10-18T01:24:59.861Z,1016.62
2018-10-18T01:25:59.927Z,1016.62
2018-10-18T01:26:59.902Z,1016.66
2018-10-18T01:27:59.933Z,1016.66
2018-10-18T01:28:59.952Z,1016.64
2018-10-18T01:30:00.001Z,1016.66
2018-10-18T01:31:00.006Z,1016.68
2018-10-18T01:32:00.057Z,1016.71
2018-10-18T01:33:00.061Z,1016.71
2018-10-18T01:34:00.075Z,1016.69
2018-10-18T01:35:00.108Z,1016.70
2018-10-18T01:36:00.166Z,1016.69
2018-10-18T01:37:00.152Z,1016.71
2018-10-18T01:38:00.192Z,1016.70
2018-10-18T01:39:00.203Z,1016.70
2018-10-18T01:40:00.222Z,1016.72
2018-10-18T01:41:00.248Z,1016.70
2018-10-18T01:42:00.315Z,1016.68
2018-10-18T01:43:00.300Z,1016.67
2018-10-18T01:44:00.346Z,1016.67
2018-10-18T01:45:00.348Z,1016.65
2018-10-18T01:46:00.379Z,1016.61
2018-10-18T01:47:00.399Z,1016.64
2018-10-18T01:48:00.426Z,1016.61
2018-10-18T01:49:00.453Z,1016.62
2018-10-18T01:50:00.538Z,1016.61
2018-10-18T01:51:00.497Z,1016.59
2018-10-18T01:52:00.525Z,1016.62
2018-10-18T01:53:00.552Z,1016.61
2018-10-18T01:54:00.646Z,1016.61
2018-10-18T01:55:00.599Z,1016.59
2018-10-18T01:56:00.653Z,1016.61
2018-10-18T01:57:00.645Z,1016.61
2018-10-18T01:58:00.671Z,1016.62
2018-10-18T01:59:00.702Z,1016.61
2018-10-18T02:00:00.786Z,1016.62
2018-10-18T02:01:00.742Z,1016.55
2018-10-18T02:02:00.844Z,1016.54
2018-10-18T02:03:00.795Z,1016.56
2018-10-18T02:04:00.820Z,1016.56
2018-10-18T02:05:00.848Z,1016.55
2018-10-18T02:06:00.880Z,1016.57
2018-10-18T02:07:00.892Z,1016.58
2018-10-18T02:08:00.976Z,1016.61
2018-10-18T02:09:00.945Z,1016.59
2018-10-18T02:10:00.999Z,1016.57
2018-10-18T02:11:00.988Z,1016.58
2018-10-18T02:12:01.047Z,1016.54
2018-10-18T02:13:01.036Z,1016.51
2018-10-18T02:14:01.070Z,1016.53
2018-10-18T02:15:01.093Z,1016.51
2018-10-18T02:16:01.113Z,1016.52
2018-10-18T02:17:01.135Z,1016.50
2018-10-18T02:18:01.188Z,1016.50
2018-10-18T02:19:01.208Z,1016.50
2018-10-18T02:20:01.216Z,1016.49
2018-10-18T02:21:01.235Z,1016.48
2018-10-18T02:22:01.264Z,1016.48
2018-10-18T02:23:01.284Z,1016.46
2018-10-18T02:24:01.333Z,1016.48
2018-10-18T02:25:01.382Z,1016.45
2018-10-18T02:26:01.361Z,1016.44
2018-10-18T02:27:01.389Z,1016.43
2018-10-18T02:28:01.409Z,1016.48
2018-10-18T02:29:01.433Z,1016.43
2018-10-18T02:30:01.543Z,1016.49
2018-10-18T02:31:01.486Z,1016.44
2018-10-18T02:32:01.512Z,1016.45
2018-10-18T02:33:01.536Z,1016.46
2018-10-18T02:34:01.556Z,1016.44
2018-10-18T02:35:01.582Z,1016.42
2018-10-18T02:36:01.610Z,1016.44
2018-10-18T02:37:01.631Z,1016.44
2018-10-18T02:38:01.657Z,1016.46
2018-10-18T02:39:01.686Z,1016.45
2018-10-18T02:40:01.730Z,1016.47
2018-10-18T02:41:01.729Z,1016.44
2018-10-18T02:42:01.839Z,1016.46
2018-10-18T02:43:01.781Z,1016.47
2018-10-18T02:44:01.806Z,1016.50
2018-10-18T02:45:01.843Z,1016.47
2018-10-18T02:46:01.850Z,1016.46
2018-10-18T02:47:01.892Z,1016.45
2018-10-18T02:48:01.970Z,1016.49
2018-10-18T02:49:01.925Z,1016.45
2018-10-18T02:50:01.959Z,1016.46
2018-10-18T02:51:01.975Z,1016.45
2018-10-18T02:52:02.003Z,1016.46
2018-10-18T02:53:02.039Z,1016.45
2018-10-18T02:54:02.095Z,1016.43
2018-10-18T02:55:02.078Z,1016.46
2018-10-18T02:56:02.113Z,1016.44
2018-10-18T02:57:02.122Z,1016.42
2018-10-18T02:58:02.153Z,1016.40
2018-10-18T02:59:02.175Z,1016.39
2018-10-18T03:00:02.223Z,1016.40
2018-10-18T03:01:02.228Z,1016.40
2018-10-18T03:02:02.243Z,1016.44
2018-10-18T03:03:02.269Z,1016.43
2018-10-18T03:04:02.294Z,1016.47
2018-10-18T03:05:02.319Z,1016.50
2018-10-18T03:06:02.378Z,1016.51
2018-10-18T03:07:02.372Z,1016.52
2018-10-18T03:08:02.392Z,1016.56
2018-10-18T03:09:02.416Z,1016.50
2018-10-18T03:10:02.438Z,1016.58
2018-10-18T03:11:02.472Z,1016.54
2018-10-18T03:12:02.548Z,1016.52
2018-10-18T03:13:02.518Z,1016.55
2018-10-18T03:14:02.549Z,1016.50
2018-10-18T03:15:02.568Z,1016.49
2018-10-18T03:16:02.706Z,1016.48
2018-10-18T03:17:02.616Z,1016.50
2018-10-18T03:18:02.693Z,1016.45
2018-10-18T03:19:02.667Z,1016.47
2018-10-18T03:20:02.693Z,1016.43
2018-10-18T03:21:02.713Z,1016.44
2018-10-18T03:22:02.735Z,1016.48
2018-10-18T03:23:02.767Z,1016.49
2018-10-18T03:24:02.835Z,1016.49
2018-10-18T03:25:02.809Z,1016.51
2018-10-18T03:26:02.838Z,1016.53
2018-10-18T03:27:02.860Z,1016.51
2018-10-18T03:28:02.886Z,1016.51
2018-10-18T03:29:02.913Z,1016.53
2018-10-18T03:30:03.026Z,1016.51
2018-10-18T03:31:02.956Z,1016.51
2018-10-18T03:32:02.981Z,1016.54
2018-10-18T03:33:03.008Z,1016.54
2018-10-18T03:34:03.029Z,1016.55
2018-10-18T03:35:03.068Z,1016.56
2018-10-18T03:36:03.158Z,1016.53
2018-10-18T03:37:03.106Z,1016.53
2018-10-18T03:38:03.130Z,1016.51
2018-10-18T03:39:03.153Z,1016.51
2018-10-18T03:40:03.178Z,1016.50
2018-10-18T03:41:03.203Z,1016.50
2018-10-18T03:42:03.305Z,1016.52
2018-10-18T03:43:03.263Z,1016.51
2018-10-18T03:44:03.276Z,1016.54
2018-10-18T03:45:03.304Z,1016.55
2018-10-18T03:46:03.333Z,1016.55
2018-10-18T03:47:03.351Z,1016.56
2018-10-18T03:48:03.511Z,1016.51
2018-10-18T03:49:03.411Z,1016.54
2018-10-18T03:50:03.426Z,1016.50
2018-10-18T03:51:03.456Z,1016.48
2018-10-18T03:52:03.481Z,1016.51
2018-10-18T03:53:03.500Z,1016.52
2018-10-18T03:54:03.603Z,1016.53
2018-10-18T03:55:03.606Z,1016.50
2018-10-18T03:56:03.574Z,1016.51
2018-10-18T03:57:03.595Z,1016.53
2018-10-18T03:58:03.652Z,1016.53
2018-10-18T03:59:03.644Z,1016.53
2018-10-18T04:00:03.758Z,1016.54
2018-10-18T04:01:03.694Z,1016.53
2018-10-18T04:02:03.714Z,1016.63
2018-10-18T04:03:03.756Z,1016.64
2018-10-18T04:04:03.772Z,1016.66
2018-10-18T04:05:03.796Z,1016.66
2018-10-18T04:06:03.903Z,1016.63
2018-10-18T04:07:03.838Z,1016.62
2018-10-18T04:08:03.867Z,1016.60
2018-10-18T04:09:03.886Z,1016.58
2018-10-18T04:10:03.918Z,1016.60
2018-10-18T04:11:03.938Z,1016.63
2018-10-18T04:12:04.077Z,1016.61
2018-10-18T04:13:04.027Z,1016.64
2018-10-18T04:14:04.013Z,1016.60
2018-10-18T04:15:04.032Z,1016.63
2018-10-18T04:16:04.071Z,1016.63
2018-10-18T04:17:04.084Z,1016.61
2018-10-18T04:18:04.268Z,1016.62
2018-10-18T04:19:04.133Z,1016.61
2018-10-18T04:20:04.159Z,1016.59
2018-10-18T04:21:04.185Z,1016.62
2018-10-18T04:22:04.218Z,1016.63
2018-10-18T04:23:04.230Z,1016.63
2018-10-18T04:24:04.277Z,1016.61
2018-10-18T04:25:04.285Z,1016.59
2018-10-18T04:26:04.310Z,1016.60
2018-10-18T04:27:04.329Z,1016.61
2018-10-18T04:28:04.354Z,1016.55
2018-10-18T04:29:04.376Z,1016.56
2018-10-18T04:30:04.495Z,1016.54
2018-10-18T04:31:04.449Z,1016.54
2018-10-18T04:32:04.451Z,1016.55
2018-10-18T04:33:04.479Z,1016.55
2018-10-18T04:34:04.501Z,1016.57
2018-10-18T04:35:04.523Z,1016.57
2018-10-18T04:36:04.582Z,1016.57
2018-10-18T04:37:04.579Z,1016.56
2018-10-18T04:38:04.600Z,1016.58
2018-10-18T04:39:04.625Z,1016.57
2018-10-18T04:40:04.650Z,1016.56
2018-10-18T04:41:04.674Z,1016.54
2018-10-18T04:42:04.721Z,1016.55
2018-10-18T04:43:04.726Z,1016.54
2018-10-18T04:44:04.742Z,1016.54
2018-10-18T04:45:04.768Z,1016.56
2018-10-18T04:46:04.793Z,1016.56
2018-10-18T04:47:04.842Z,1016.55
2018-10-18T04:48:05.049Z,1016.54
2018-10-18T04:49:04.868Z,1016.58
2018-10-18T04:50:04.894Z,1016.58
2018-10-18T04:51:04.914Z,1016.59
2018-10-18T04:52:04.936Z,1016.58
2018-10-18T04:53:04.962Z,1016.60
2018-10-18T04:54:05.029Z,1016.60
2018-10-18T04:55:05.092Z,1016.61
2018-10-18T04:56:05.035Z,1016.57
2018-10-18T04:57:05.087Z,1016.59
2018-10-18T04:58:05.090Z,1016.58
2018-10-18T04:59:05.119Z,1016.60
2018-10-18T05:00:05.130Z,1016.63
2018-10-18T05:01:05.207Z,1016.64
2018-10-18T05:02:05.191Z,1016.64
2018-10-18T05:03:05.207Z,1016.64
2018-10-18T05:04:05.231Z,1016.64
2018-10-18T05:05:05.257Z,1016.64
2018-10-18T05:06:05.279Z,1016.65
2018-10-18T05:07:05.326Z,1016.66
2018-10-18T05:08:05.333Z,1016.66
2018-10-18T05:09:05.360Z,1016.66
2018-10-18T05:10:05.375Z,1016.68
2018-10-18T05:11:05.430Z,1016.70
2018-10-18T05:12:05.423Z,1016.73
2018-10-18T05:13:05.488Z,1016.77
2018-10-18T05:14:05.483Z,1016.78
2018-10-18T05:15:05.499Z,1016.77
2018-10-18T05:16:05.528Z,1016.79
2018-10-18T05:17:05.551Z,1016.82
2018-10-18T05:18:05.571Z,1016.84
2018-10-18T05:19:05.637Z,1016.83
2018-10-18T05:20:05.624Z,1016.86
2018-10-18T05:21:05.646Z,1016.87
2018-10-18T05:22:05.671Z,1016.84
2018-10-18T05:23:05.707Z,1016.85
2018-10-18T05:24:05.723Z,1016.86
2018-10-18T05:25:05.861Z,1016.87
2018-10-18T05:26:05.766Z,1016.85
2018-10-18T05:27:05.802Z,1016.86
2018-10-18T05:28:05.816Z,1016.85
2018-10-18T05:29:05.840Z,1016.86
2018-10-18T05:30:05.870Z,1016.88
2018-10-18T05:31:05.925Z,1016.87
2018-10-18T05:32:05.915Z,1016.90
2018-10-18T05:33:05.947Z,1016.90
2018-10-18T05:34:05.963Z,1016.91
2018-10-18T05:35:05.999Z,1016.98
2018-10-18T05:36:06.015Z,1017.01
2018-10-18T05:37:06.091Z,1017.02
2018-10-18T05:38:06.065Z,1017.01
2018-10-18T05:39:06.159Z,1017.08
2018-10-18T05:40:06.120Z,1017.04
2018-10-18T05:41:06.142Z,1017.03
2018-10-18T05:42:06.162Z,1017.04
2018-10-18T05:43:06.215Z,1017.06
2018-10-18T05:44:06.205Z,1017.05
2018-10-18T05:45:06.240Z,1017.03
2018-10-18T05:46:06.257Z,1017.06
2018-10-18T05:47:06.311Z,1017.07
2018-10-18T05:48:06.307Z,1017.06
2018-10-18T05:49:06.365Z,1017.09
2018-10-18T05:50:06.354Z,1017.08
2018-10-18T05:51:06.385Z,1017.14
2018-10-18T05:52:06.398Z,1017.16
2018-10-18T05:53:06.591Z,1017.13
2018-10-18T05:54:06.454Z,1017.13
2018-10-18T05:55:06.554Z,1017.17
2018-10-18T05:56:06.500Z,1017.18
2018-10-18T05:57:06.528Z,1017.16
2018-10-18T05:58:06.549Z,1017.19
2018-10-18T05:59:06.583Z,1017.22
2018-10-18T06:00:06.603Z,1017.27
2018-10-18T06:01:06.703Z,1017.24
2018-10-18T06:02:06.650Z,1017.23
2018-10-18T06:03:06.676Z,1017.25
2018-10-18T06:04:06.702Z,1017.26
2018-10-18T06:05:06.727Z,1017.27
2018-10-18T06:06:06.745Z,1017.32
2018-10-18T06:07:06.879Z,1017.34
2018-10-18T06:08:06.791Z,1017.37
2018-10-18T06:09:06.822Z,1017.34
2018-10-18T06:10:06.996Z,1017.39
2018-10-18T06:11:06.873Z,1017.45
2018-10-18T06:12:06.885Z,1017.41
2018-10-18T06:13:06.970Z,1017.40
2018-10-18T06:14:06.937Z,1017.43
2018-10-18T06:15:06.964Z,1017.44
2018-10-18T06:16:06.988Z,1017.44
2018-10-18T06:17:07.018Z,1017.48
2018-10-18T06:18:07.052Z,1017.50
2018-10-18T06:19:07.140Z,1017.47
2018-10-18T06:20:07.082Z,1017.50
2018-10-18T06:21:07.113Z,1017.47
2018-10-18T06:22:07.130Z,1017.47
2018-10-18T06:23:07.185Z,1017.49
2018-10-18T06:24:07.184Z,1017.52
2018-10-18T06:25:07.208Z,1017.54
2018-10-18T06:26:07.224Z,1017.53
2018-10-18T06:27:07.257Z,1017.55
2018-10-18T06:28:07.277Z,1017.49
2018-10-18T06:29:07.327Z,1017.51
2018-10-18T06:30:07.325Z,1017.49
2018-10-18T06:31:07.412Z,1017.50
2018-10-18T06:32:07.373Z,1017.51
2018-10-18T06:33:07.457Z,1017.54
2018-10-18T06:34:07.423Z,1017.56
2018-10-18T06:35:07.517Z,1017.56
2018-10-18T06:36:07.473Z,1017.54
2018-10-18T06:37:07.555Z,1017.59
2018-10-18T06:38:07.517Z,1017.57
2018-10-18T06:39:07.608Z,1017.58
2018-10-18T06:40:07.570Z,1017.57
2018-10-18T06:41:07.660Z,1017.59
2018-10-18T06:42:07.616Z,1017.60
2018-10-18T06:43:07.695Z,1017.61
2018-10-18T06:44:07.661Z,1017.59
2018-10-18T06:45:07.694Z,1017.56
2018-10-18T06:46:07.716Z,1017.56
2018-10-18T06:47:07.818Z,1017.60
2018-10-18T06:48:07.811Z,1017.58
2018-10-18T06:49:07.873Z,1017.54
2018-10-18T06:50:07.808Z,1017.58
2018-10-18T06:51:07.857Z,1017.55
2018-10-18T06:52:07.860Z,1017.55
2018-10-18T06:53:07.890Z,1017.57
2018-10-18T06:54:07.936Z,1017.56
2018-10-18T06:55:07.959Z,1017.58
2018-10-18T06:56:07.968Z,1017.59
2018-10-18T06:57:07.992Z,1017.61
2018-10-18T06:58:08.004Z,1017.61
2018-10-18T06:59:08.030Z,1017.63
2018-10-18T07:00:08.089Z,1017.63
2018-10-18T07:01:08.081Z,1017.58
2018-10-18T07:02:08.128Z,1017.56
2018-10-18T07:03:08.132Z,1017.58
2018-10-18T07:04:08.150Z,1017.57
2018-10-18T07:05:08.175Z,1017.58
2018-10-18T07:06:08.323Z,1017.59
2018-10-18T07:07:08.221Z,1017.60
2018-10-18T07:08:08.249Z,1017.60
2018-10-18T07:09:08.269Z,1017.61
2018-10-18T07:10:08.295Z,1017.61
2018-10-18T07:11:08.432Z,1017.62
2018-10-18T07:12:08.434Z,1017.63
2018-10-18T07:13:08.371Z,1017.62
2018-10-18T07:14:08.391Z,1017.60
2018-10-18T07:15:08.419Z,1017.65
2018-10-18T07:16:08.442Z,1017.66
2018-10-18T07:17:08.471Z,1017.64
2018-10-18T07:18:08.580Z,1017.62
2018-10-18T07:19:08.509Z,1017.60
2018-10-18T07:20:08.563Z,1017.62
2018-10-18T07:21:08.576Z,1017.61
2018-10-18T07:22:08.588Z,1017.59
2018-10-18T07:23:08.616Z,1017.60
2018-10-18T07:24:08.678Z,1017.61
2018-10-18T07:25:08.707Z,1017.63
2018-10-18T07:26:08.706Z,1017.62
2018-10-18T07:27:08.717Z,1017.60
2018-10-18T07:28:08.728Z,1017.63
2018-10-18T07:29:08.766Z,1017.65
2018-10-18T07:30:08.879Z,1017.62
2018-10-18T07:31:08.806Z,1017.63
2018-10-18T07:32:08.834Z,1017.61
2018-10-18T07:33:08.860Z,1017.62
2018-10-18T07:34:08.898Z,1017.62
2018-10-18T07:35:08.998Z,1017.63
2018-10-18T07:36:08.951Z,1017.66
2018-10-18T07:37:08.953Z,1017.63
2018-10-18T07:38:08.980Z,1017.63
2018-10-18T07:39:09.005Z,1017.67
2018-10-18T07:40:09.026Z,1017.62
2018-10-18T07:41:09.069Z,1017.64
2018-10-18T07:42:09.195Z,1017.62
2018-10-18T07:43:09.098Z,1017.61
2018-10-18T07:44:09.151Z,1017.62
2018-10-18T07:45:09.156Z,1017.62
2018-10-18T07:46:09.175Z,1017.63
2018-10-18T07:47:09.203Z,1017.65
2018-10-18T07:48:09.287Z,1017.69
2018-10-18T07:49:09.262Z,1017.75
2018-10-18T07:50:09.291Z,1017.73
2018-10-18T07:51:09.296Z,1017.70
2018-10-18T07:52:09.317Z,1017.71
2018-10-18T07:53:09.469Z,1017.70
2018-10-18T07:54:09.457Z,1017.73
2018-10-18T07:55:09.405Z,1017.71
2018-10-18T07:56:09.420Z,1017.72
2018-10-18T07:57:09.440Z,1017.74
2018-10-18T07:58:09.483Z,1017.77
2018-10-18T07:59:09.494Z,1017.78
2018-10-18T08:00:09.696Z,1017.79
2018-10-18T08:01:09.550Z,1017.75
2018-10-18T08:02:09.578Z,1017.79
2018-10-18T08:03:09.596Z,1017.82
2018-10-18T08:04:09.629Z,1017.81
2018-10-18T08:05:09.637Z,1017.81
2018-10-18T08:06:09.672Z,1017.82
2018-10-18T08:07:09.706Z,1017.83
2018-10-18T08:08:09.725Z,1017.83
2018-10-18T08:09:09.743Z,1017.85
2018-10-18T08:10:09.774Z,1017.83
2018-10-18T08:11:09.925Z,1017.85
2018-10-18T08:12:09.812Z,1017.83
2018-10-18T08:13:10.215Z,1017.84
2018-10-18T08:14:09.876Z,1017.81
2018-10-18T08:15:09.886Z,1017.82
2018-10-18T08:16:09.974Z,1017.78
2018-10-18T08:17:10.016Z,1017.80
2018-10-18T08:18:10.056Z,1017.79
2018-10-18T08:19:09.996Z,1017.77
2018-10-18T08:20:10.023Z,1017.80
2018-10-18T08:21:10.033Z,1017.80
2018-10-18T08:22:10.065Z,1017.77
2018-10-18T08:23:10.208Z,1017.78
2018-10-18T08:24:10.107Z,1017.78
2018-10-18T08:25:10.220Z,1017.75
2018-10-18T08:26:10.168Z,1017.77
2018-10-18T08:27:10.180Z,1017.78
2018-10-18T08:28:10.307Z,1017.75
2018-10-18T08:29:10.243Z,1017.73
2018-10-18T08:30:10.263Z,1017.72
2018-10-18T08:31:10.364Z,1017.75
2018-10-18T08:32:10.311Z,1017.75
2018-10-18T08:33:10.348Z,1017.72
2018-10-18T08:34:10.355Z,1017.75
2018-10-18T08:35:10.380Z,1017.73
2018-10-18T08:36:10.403Z,1017.72
2018-10-18T08:37:10.443Z,1017.73
2018-10-18T08:38:10.574Z,1017.73
2018-10-18T08:39:10.496Z,1017.72
2018-10-18T08:40:10.502Z,1017.72
2018-10-18T08:41:10.530Z,1017.73
2018-10-18T08:42:10.553Z,1017.74
2018-10-18T08:43:10.626Z,1017.74
2018-10-18T08:44:10.772Z,1017.75
2018-10-18T08:45:10.636Z,1017.75
2018-10-18T08:46:10.699Z,1017.75
2018-10-18T08:47:10.685Z,1017.72
2018-10-18T08:48:10.698Z,1017.71
2018-10-18T08:49:10.848Z,1017.70
2018-10-18T08:50:10.747Z,1017.69
2018-10-18T08:51:10.786Z,1017.73
2018-10-18T08:52:10.800Z,1017.72
2018-10-18T08:53:10.829Z,1017.71
2018-10-18T08:54:10.849Z,1017.71
2018-10-18T08:55:10.917Z,1017.71
2018-10-18T08:56:10.896Z,1017.73
2018-10-18T08:57:10.929Z,1017.71
2018-10-18T08:58:10.968Z,1017.72
2018-10-18T08:59:11.026Z,1017.72
2018-10-18T09:00:13.615Z,1017.70
2018-10-18T09:01:12.892Z,1017.71
2018-10-18T09:02:11.067Z,1017.72
2018-10-18T09:03:11.079Z,1017.72
2018-10-18T09:04:11.112Z,1017.72
2018-10-18T09:05:11.121Z,1017.69
2018-10-18T09:06:11.148Z,1017.70
2018-10-18T09:07:11.305Z,1017.67
2018-10-18T09:08:11.197Z,1017.67
2018-10-18T09:09:11.313Z,1017.65
2018-10-18T09:10:11.263Z,1017.68
2018-10-18T09:11:11.274Z,1017.69
2018-10-18T09:12:11.316Z,1017.69
2018-10-18T09:13:11.489Z,1017.67
2018-10-18T09:14:11.358Z,1017.71
2018-10-18T09:15:11.370Z,1017.71
2018-10-18T09:16:11.474Z,1017.71
2018-10-18T09:17:11.422Z,1017.70
2018-10-18T09:18:11.454Z,1017.68
2018-10-18T09:19:11.862Z,1017.71
2018-10-18T09:20:11.502Z,1017.72
2018-10-18T09:21:11.541Z,1017.71
2018-10-18T09:22:11.551Z,1017.71
2018-10-18T09:23:12.110Z,1017.73
2018-10-18T09:24:11.602Z,1017.72
2018-10-18T09:25:11.869Z,1017.75
2018-10-18T09:26:11.646Z,1017.76
2018-10-18T09:27:11.681Z,1017.74
2018-10-18T09:28:11.701Z,1017.74
2018-10-18T09:29:11.740Z,1017.74
2018-10-18T09:30:11.808Z,1017.68
2018-10-18T09:31:11.944Z,1017.68
2018-10-18T09:32:11.795Z,1017.69
2018-10-18T09:33:11.829Z,1017.69
2018-10-18T09:34:11.847Z,1017.74
2018-10-18T09:35:11.887Z,1017.72
2018-10-18T09:36:16.083Z,1017.69
2018-10-18T09:37:12.151Z,1017.72
2018-10-18T09:38:12.019Z,1017.72
2018-10-18T09:39:11.970Z,1017.72
2018-10-18T09:40:11.994Z,1017.71
2018-10-18T09:41:12.030Z,1017.68
2018-10-18T09:42:12.049Z,1017.72
2018-10-18T09:43:12.111Z,1017.73
2018-10-18T09:44:12.163Z,1017.75
2018-10-18T09:45:13.059Z,1017.77
2018-10-18T09:46:12.169Z,1017.76
2018-10-18T09:47:12.185Z,1017.77
2018-10-18T09:48:12.210Z,1017.79
2018-10-18T09:49:12.292Z,1017.83
2018-10-18T09:50:12.253Z,1017.88
2018-10-18T09:51:12.280Z,1017.83
2018-10-18T09:52:12.310Z,1017.85
2018-10-18T09:53:12.331Z,1017.86
2018-10-18T09:54:12.359Z,1017.86
2018-10-18T09:55:12.458Z,1017.87
2018-10-18T09:56:12.568Z,1017.91
2018-10-18T09:57:12.433Z,1017.90
2018-10-18T09:58:12.473Z,1017.90
2018-10-18T09:59:12.499Z,1017.91
2018-10-18T10:00:12.508Z,1017.90
2018-10-18T10:01:12.623Z,1017.89
2018-10-18T10:02:12.562Z,1017.95
2018-10-18T10:03:12.601Z,1017.90
2018-10-18T10:04:12.731Z,1017.95
2018-10-18T10:05:12.645Z,1017.90
2018-10-18T10:06:12.675Z,1017.93
2018-10-18T10:07:12.714Z,1017.95
2018-10-18T10:08:12.737Z,1017.96
2018-10-18T10:09:12.752Z,1017.98
2018-10-18T10:10:12.781Z,1018.05
2018-10-18T10:11:12.810Z,1017.99
2018-10-18T10:12:12.831Z,1018.02
2018-10-18T10:13:12.991Z,1017.99
2018-10-18T10:14:12.885Z,1018.03
2018-10-18T10:15:12.922Z,1018.04
2018-10-18T10:16:12.957Z,1018.03
2018-10-18T10:17:13.048Z,1018.01
2018-10-18T10:18:13.120Z,1018.00
2018-10-18T10:19:13.109Z,1018.01
2018-10-18T10:20:13.057Z,1018.02
2018-10-18T10:21:13.091Z,1017.95
2018-10-18T10:22:13.105Z,1017.97
2018-10-18T10:23:13.130Z,1017.96
2018-10-18T10:24:13.164Z,1017.96
2018-10-18T10:25:13.336Z,1017.96
2018-10-18T10:26:13.226Z,1017.96
2018-10-18T10:27:13.242Z,1017.98
2018-10-18T10:28:13.288Z,1017.98
2018-10-18T10:29:13.304Z,1017.98
2018-10-18T10:30:13.344Z,1018.01
2018-10-18T10:31:13.455Z,1017.96
2018-10-18T10:32:13.393Z,1017.97
2018-10-18T10:33:13.446Z,1017.95
2018-10-18T10:34:13.443Z,1017.98
2018-10-18T10:35:13.570Z,1017.95
2018-10-18T10:36:13.513Z,1018.00
2018-10-18T10:37:13.610Z,1018.00
2018-10-18T10:38:13.566Z,1018.00
2018-10-18T10:39:13.693Z,1018.03
2018-10-18T10:40:13.684Z,1018.02
2018-10-18T10:41:13.705Z,1017.98
2018-10-18T10:42:13.671Z,1018.01
2018-10-18T10:43:13.706Z,1018.02
2018-10-18T10:44:13.961Z,1018.03
2018-10-18T10:45:13.809Z,1018.07
2018-10-18T10:46:13.870Z,1018.08
2018-10-18T10:47:13.802Z,1018.01
2018-10-18T10:48:13.896Z,1018.06
2018-10-18T10:49:14.016Z,1018.06
2018-10-18T10:50:13.927Z,1018.06
2018-10-18T10:51:13.941Z,1018.05
2018-10-18T10:52:14.038Z,1018.11
2018-10-18T10:53:13.986Z,1018.09
2018-10-18T10:54:14.025Z,1018.14
2018-10-18T10:55:14.029Z,1018.12
2018-10-18T10:56:14.119Z,1018.14
2018-10-18T10:57:14.212Z,1018.09
2018-10-18T10:58:14.143Z,1018.12
2018-10-18T10:59:14.127Z,1018.15
2018-10-18T11:00:14.229Z,1018.14
2018-10-18T11:01:14.206Z,1018.16
2018-10-18T11:02:14.317Z,1018.13
2018-10-18T11:03:14.263Z,1018.15
2018-10-18T11:04:14.270Z,1018.15
2018-10-18T11:05:14.303Z,1018.15
2018-10-18T11:06:14.408Z,1018.14
2018-10-18T11:07:14.356Z,1018.12
2018-10-18T11:08:14.642Z,1018.19
2018-10-18T11:09:14.484Z,1018.17
2018-10-18T11:10:14.423Z,1018.14
2018-10-18T11:11:14.475Z,1018.15
2018-10-18T11:12:14.514Z,1018.15
2018-10-18T11:13:14.795Z,1018.13
2018-10-18T11:14:14.599Z,1018.15
2018-10-18T11:15:14.686Z,1018.12
2018-10-18T11:16:14.590Z,1018.15
2018-10-18T11:17:14.667Z,1018.13
2018-10-18T11:18:14.763Z,1018.12
2018-10-18T11:19:14.688Z,1018.10
2018-10-18T11:20:14.907Z,1018.12
2018-10-18T11:21:14.877Z,1018.12
2018-10-18T11:22:14.847Z,1018.17
2018-10-18T11:23:14.782Z,1018.15
2018-10-18T11:24:14.875Z,1018.18
2018-10-18T11:25:14.849Z,1018.19
2018-10-18T11:26:15.071Z,1018.19
2018-10-18T11:27:14.966Z,1018.18
2018-10-18T11:28:14.932Z,1018.19
2018-10-18T11:29:15.066Z,1018.17
2018-10-18T11:30:15.019Z,1018.20
2018-10-18T11:31:15.017Z,1018.18
2018-10-18T11:32:15.624Z,1018.19
2018-10-18T11:33:15.218Z,1018.21
2018-10-18T11:34:15.391Z,1018.21
2018-10-18T11:35:15.447Z,1018.20
2018-10-18T11:36:15.283Z,1018.24
2018-10-18T11:37:15.158Z,1018.23
2018-10-18T11:38:15.347Z,1018.30
2018-10-18T11:39:15.251Z,1018.30
2018-10-18T11:40:15.270Z,1018.27
2018-10-18T11:41:15.696Z,1018.26
2018-10-18T11:42:15.348Z,1018.29
2018-10-18T11:43:15.329Z,1018.26
2018-10-18T11:44:15.341Z,1018.28
2018-10-18T11:45:15.356Z,1018.27
2018-10-18T11:46:15.386Z,1018.25
2018-10-18T11:47:15.419Z,1018.24
2018-10-18T11:48:15.499Z,1018.20
2018-10-18T11:49:15.463Z,1018.20
2018-10-18T11:50:15.515Z,1018.20
2018-10-18T11:51:15.530Z,1018.16
2018-10-18T11:52:15.538Z,1018.17
2018-10-18T11:53:15.570Z,1018.16
2018-10-18T11:54:15.638Z,1018.14
2018-10-18T11:55:15.617Z,1018.11
2018-10-18T11:56:15.797Z,1018.12
2018-10-18T11:57:15.676Z,1018.10
2018-10-18T11:58:15.697Z,1018.11
2018-10-18T11:59:15.814Z,1018.07
2018-10-18T12:00:15.752Z,1018.05
2018-10-18T12:01:15.900Z,1018.03
2018-10-18T12:02:15.894Z,1018.08
2018-10-18T12:03:15.827Z,1018.04
2018-10-18T12:04:15.853Z,1018.02
2018-10-18T12:05:16.000Z,1017.99
2018-10-18T12:07:15.940Z,1017.99